Time;durP1;ratioP1;P1;durP2;ratioP2;P2;SDS_P1;SDS_P2;PMS_P1;PMS_P2;Temp;Humidity;BMP_temperature;BMP_pressure;BME280_temperature;BME280_humidity;BME280_pressure;Samples;Min_cycle;Max_cycle;Signal;HPM_P1;HPM_P2
2023/12/16 00:00:32;;;;;;;20.48;11.32;;;;;;;;;;5795867;28;20050;-80
2023/12/16 00:03:23;;;;;;;26.90;11.02;;;;;;;;;;5794063;28;20058;-80
2023/12/16 00:06:14;;;;;;;21.08;9.38;;;;;;;;;;5810894;28;20082;-81
2023/12/16 00:09:05;;;;;;;22.95;8.35;;;;;;;;;;5810222;28;20049;-81
2023/12/16 00:11:55;;;;;;;15.27;10.50;;;;;;;;;;5794436;28;20468;-81
2023/12/16 00:14:47;;;;;;;21.63;10.05;;;;;;;;;;5777837;28;20050;-80
2023/12/16 00:17:37;;;;;;;15.10;8.70;;;;;;;;;;5793709;28;20043;-81
2023/12/16 00:20:29;;;;;;;13.25;7.72;;;;;;;;;;5777810;28;20448;-80
2023/12/16 00:23:20;;;;;;;13.38;9.10;;;;;;;;;;5777578;28;20050;-80
2023/12/16 00:26:10;;;;;;;20.65;11.85;;;;;;;;;;5795142;28;20129;-81
2023/12/16 00:29:01;;;;;;;17.45;9.38;;;;;;;;;;5795167;28;20441;-80
2023/12/16 00:31:52;;;;;;;16.02;9.80;;;;;;;;;;5778382;28;20043;-80
2023/12/16 00:34:43;;;;;;;21.63;11.70;;;;;;;;;;5794761;28;20568;-80
2023/12/16 00:37:34;;;;;;;34.17;10.60;;;;;;;;;;5791179;28;20185;-81
2023/12/16 00:40:26;;;;;;;33.42;12.68;;;;;;;;;;5793582;28;20095;-81
2023/12/16 00:43:17;;;;;;;20.52;10.75;;;;;;;;;;5794894;28;20054;-80
2023/12/16 00:46:08;;;;;;;31.42;14.90;;;;;;;;;;5793319;28;20138;-80
2023/12/16 00:48:59;;;;;;;18.85;10.07;;;;;;;;;;5795238;28;20508;-81
2023/12/16 00:51:50;;;;;;;22.63;11.93;;;;;;;;;;5793278;28;20133;-81
2023/12/16 00:54:41;;;;;;;20.13;12.23;;;;;;;;;;5793125;28;20098;-81
2023/12/16 00:57:32;;;;;;;17.45;10.45;;;;;;;;;;5790611;28;20126;-81
2023/12/16 01:00:22;;;;;;;17.50;9.45;;;;;;;;;;5792807;28;20043;-81
2023/12/16 01:03:13;;;;;;;24.00;10.30;;;;;;;;;;5796928;28;20054;-80
2023/12/16 01:06:04;;;;;;;15.88;8.20;;;;;;;;;;5772059;28;20174;-80
2023/12/16 01:08:55;;;;;;;16.25;8.20;;;;;;;;;;5786841;28;20051;-81
2023/12/16 01:11:46;;;;;;;12.27;6.85;;;;;;;;;;5770375;28;20050;-81
2023/12/16 01:14:37;;;;;;;17.98;7.05;;;;;;;;;;5786431;28;20055;-81
2023/12/16 01:17:27;;;;;;;14.10;9.13;;;;;;;;;;5771656;28;20062;-81
2023/12/16 01:20:18;;;;;;;14.35;7.57;;;;;;;;;;5771661;28;20082;-81
2023/12/16 01:23:09;;;;;;;13.05;8.20;;;;;;;;;;5770171;28;20055;-80
2023/12/16 01:26:00;;;;;;;12.82;9.05;;;;;;;;;;5786563;28;20054;-81
2023/12/16 01:28:50;;;;;;;17.98;7.57;;;;;;;;;;5770473;28;20046;-80
2023/12/16 01:31:41;;;;;;;15.15;8.43;;;;;;;;;;5770279;28;20051;-81
2023/12/16 01:34:32;;;;;;;15.23;7.97;;;;;;;;;;5770246;28;20047;-81
2023/12/16 01:37:26;;;;;;;10.43;7.75;;;;;;;;;;5769980;28;20548;-81
2023/12/16 01:40:16;;;;;;;10.57;6.50;;;;;;;;;;5771347;28;20054;-80
2023/12/16 01:43:08;;;;;;;15.75;10.50;;;;;;;;;;5771359;28;20051;-80
2023/12/16 01:46:04;;;;;;;20.42;9.40;;;;;;;;;;5786269;28;20078;-80
2023/12/16 01:48:56;;;;;;;9.48;7.18;;;;;;;;;;5770044;28;20518;-81
2023/12/16 01:51:47;;;;;;;18.90;7.18;;;;;;;;;;5785658;28;20047;-81
2023/12/16 01:54:38;;;;;;;11.10;6.40;;;;;;;;;;5785834;28;20181;-81
2023/12/16 01:57:29;;;;;;;15.43;7.93;;;;;;;;;;5769485;28;20047;-81
2023/12/16 02:00:21;;;;;;;19.77;8.57;;;;;;;;;;5785774;28;20090;-81
2023/12/16 02:03:14;;;;;;;16.73;6.50;;;;;;;;;;5785654;28;20063;-81
2023/12/16 02:06:05;;;;;;;13.77;6.45;;;;;;;;;;5785588;28;20058;-80
2023/12/16 02:08:56;;;;;;;11.57;5.95;;;;;;;;;;5771602;28;20055;-81
2023/12/16 02:11:47;;;;;;;14.73;7.55;;;;;;;;;;5770019;28;20048;-81
2023/12/16 02:14:38;;;;;;;13.60;7.78;;;;;;;;;;5789860;28;20058;-81
2023/12/16 02:17:29;;;;;;;10.73;6.47;;;;;;;;;;5773891;28;20043;-81
2023/12/16 02:20:20;;;;;;;11.10;6.65;;;;;;;;;;5789926;28;20088;-81
2023/12/16 02:23:15;;;;;;;11.75;7.22;;;;;;;;;;5789719;28;20055;-81
2023/12/16 02:26:06;;;;;;;9.63;5.78;;;;;;;;;;5789769;28;20139;-81
2023/12/16 02:28:57;;;;;;;16.40;7.68;;;;;;;;;;5789906;28;20092;-81
2023/12/16 02:31:48;;;;;;;13.32;7.60;;;;;;;;;;5789496;28;20059;-81
2023/12/16 02:34:39;;;;;;;14.40;6.20;;;;;;;;;;5789675;28;20039;-81
2023/12/16 02:37:30;;;;;;;7.72;5.15;;;;;;;;;;5774831;28;20178;-81
2023/12/16 02:40:20;;;;;;;16.27;7.82;;;;;;;;;;5789408;28;20330;-81
2023/12/16 02:43:11;;;;;;;8.52;5.82;;;;;;;;;;5789457;28;20059;-81
2023/12/16 02:46:02;;;;;;;19.25;8.60;;;;;;;;;;5774649;28;20059;-80
2023/12/16 02:48:53;;;;;;;17.23;8.63;;;;;;;;;;5789760;28;20055;-81
2023/12/16 02:51:44;;;;;;;8.90;6.05;;;;;;;;;;5774393;28;20514;-81
2023/12/16 02:54:35;;;;;;;11.05;6.47;;;;;;;;;;5757352;28;20051;-81
2023/12/16 02:57:26;;;;;;;12.85;7.68;;;;;;;;;;5772824;28;20047;-81
2023/12/16 03:00:16;;;;;;;14.35;6.65;;;;;;;;;;5773111;28;20047;-81
2023/12/16 03:03:07;;;;;;;12.23;7.05;;;;;;;;;;5774410;28;20051;-81
2023/12/16 03:06:07;;;;;;;16.65;5.10;;;;;;;;;;5757482;28;20157;-81
2023/12/16 03:08:58;;;;;;;20.95;7.32;;;;;;;;;;5774575;28;20102;-81
2023/12/16 03:11:49;;;;;;;11.10;6.35;;;;;;;;;;5788680;28;20054;-81
2023/12/16 03:14:41;;;;;;;14.98;5.63;;;;;;;;;;5772903;28;20043;-81
2023/12/16 03:17:32;;;;;;;9.13;5.88;;;;;;;;;;5774000;28;20082;-81
2023/12/16 03:20:23;;;;;;;18.38;7.85;;;;;;;;;;5788457;28;20126;-81
2023/12/16 03:23:14;;;;;;;14.23;8.32;;;;;;;;;;5788103;28;20051;-81
2023/12/16 03:26:06;;;;;;;16.75;8.55;;;;;;;;;;5788482;28;20058;-81
2023/12/16 03:28:56;;;;;;;16.35;8.82;;;;;;;;;;5772735;28;20047;-81
2023/12/16 03:31:47;;;;;;;23.23;10.10;;;;;;;;;;5788467;28;20047;-81
2023/12/16 03:34:38;;;;;;;26.90;7.55;;;;;;;;;;5773467;28;20043;-81
2023/12/16 03:37:29;;;;;;;12.15;7.60;;;;;;;;;;5788011;28;20043;-81
2023/12/16 03:40:20;;;;;;;17.20;7.57;;;;;;;;;;5788168;28;20083;-81
2023/12/16 03:43:12;;;;;;;19.25;11.07;;;;;;;;;;5787983;28;20133;-81
2023/12/16 03:46:03;;;;;;;10.90;7.18;;;;;;;;;;5787967;28;20054;-81
2023/12/16 03:48:54;;;;;;;12.70;7.00;;;;;;;;;;5774198;28;20417;-81
2023/12/16 03:51:45;;;;;;;7.05;6.38;;;;;;;;;;5787772;28;20070;-81
2023/12/16 03:54:36;;;;;;;17.83;5.90;;;;;;;;;;5787780;28;20412;-81
2023/12/16 03:57:29;;;;;;;8.00;5.65;;;;;;;;;;5771870;28;20744;-80
2023/12/16 04:00:20;;;;;;;8.82;4.57;;;;;;;;;;5771939;28;21244;-80
2023/12/16 04:03:11;;;;;;;11.13;5.20;;;;;;;;;;5755943;28;20441;-80
2023/12/16 04:06:02;;;;;;;9.70;7.25;;;;;;;;;;5787628;28;20059;-80
2023/12/16 04:08:53;;;;;;;9.15;6.78;;;;;;;;;;5787796;28;20070;-81
2023/12/16 04:11:48;;;;;;;14.13;6.30;;;;;;;;;;5786784;28;20145;-81
2023/12/16 04:14:39;;;;;;;11.48;6.90;;;;;;;;;;5771516;28;20051;-81
2023/12/16 04:17:30;;;;;;;5.82;5.15;;;;;;;;;;5771507;28;20047;-81
2023/12/16 04:20:21;;;;;;;23.08;6.85;;;;;;;;;;5787168;28;20074;-81
2023/12/16 04:23:12;;;;;;;23.92;7.28;;;;;;;;;;5772493;28;20498;-80
2023/12/16 04:26:03;;;;;;;6.10;4.85;;;;;;;;;;5787042;28;20059;-81
2023/12/16 04:28:58;;;;;;;8.77;5.85;;;;;;;;;;5787306;28;20405;-81
2023/12/16 04:31:48;;;;;;;10.93;5.57;;;;;;;;;;5787202;28;20417;-81
2023/12/16 04:34:39;;;;;;;10.52;6.43;;;;;;;;;;5771903;28;20370;-81
2023/12/16 04:37:30;;;;;;;12.98;5.90;;;;;;;;;;5772380;28;20081;-81
2023/12/16 04:40:21;;;;;;;9.15;4.97;;;;;;;;;;5786895;28;20186;-80
2023/12/16 04:43:12;;;;;;;14.52;5.80;;;;;;;;;;5786726;28;20087;-81
2023/12/16 04:46:03;;;;;;;8.18;6.40;;;;;;;;;;5772633;28;20055;-80
2023/12/16 04:48:54;;;;;;;6.10;5.50;;;;;;;;;;5787396;28;20047;-80
2023/12/16 04:51:45;;;;;;;13.40;6.55;;;;;;;;;;5786763;28;20043;-81
2023/12/16 04:54:37;;;;;;;6.85;4.68;;;;;;;;;;5786636;28;20046;-81
2023/12/16 04:57:27;;;;;;;5.55;4.57;;;;;;;;;;5786652;28;20130;-81
2023/12/16 05:00:18;;;;;;;5.78;4.15;;;;;;;;;;5786493;28;20051;-81
2023/12/16 05:03:09;;;;;;;14.13;5.78;;;;;;;;;;5770554;28;20059;-80
2023/12/16 05:06:00;;;;;;;16.08;6.60;;;;;;;;;;5787096;28;20055;-81
2023/12/16 05:08:51;;;;;;;21.35;7.03;;;;;;;;;;5786549;28;20047;-81
2023/12/16 05:11:41;;;;;;;5.45;4.50;;;;;;;;;;5771628;28;20051;-81
2023/12/16 05:14:32;;;;;;;8.75;5.32;;;;;;;;;;5786393;28;20054;-81
2023/12/16 05:17:23;;;;;;;5.85;4.47;;;;;;;;;;5786132;28;20054;-80
2023/12/16 05:20:14;;;;;;;9.50;6.25;;;;;;;;;;5771584;28;20063;-81
2023/12/16 05:23:05;;;;;;;12.35;5.97;;;;;;;;;;5770296;28;20410;-81
2023/12/16 05:25:56;;;;;;;9.82;4.25;;;;;;;;;;5771976;28;20051;-81
2023/12/16 05:28:47;;;;;;;6.75;3.85;;;;;;;;;;5770243;28;20044;-81
2023/12/16 05:31:38;;;;;;;15.52;5.13;;;;;;;;;;5771399;28;20047;-81
2023/12/16 05:34:29;;;;;;;10.32;5.38;;;;;;;;;;5771423;28;20043;-82
2023/12/16 05:37:20;;;;;;;11.50;5.30;;;;;;;;;;5786321;28;20122;-81
2023/12/16 05:40:11;;;;;;;8.25;4.28;;;;;;;;;;5771611;28;20055;-80
2023/12/16 05:43:02;;;;;;;9.55;5.50;;;;;;;;;;5772446;28;20086;-80
2023/12/16 05:45:53;;;;;;;8.85;5.22;;;;;;;;;;5786945;28;20426;-81
2023/12/16 05:48:44;;;;;;;4.55;4.03;;;;;;;;;;5790781;28;20395;-81
2023/12/16 05:51:41;;;;;;;10.00;5.95;;;;;;;;;;5775844;28;20047;-81
2023/12/16 05:54:32;;;;;;;8.90;5.03;;;;;;;;;;5774822;28;20047;-81
2023/12/16 05:57:22;;;;;;;4.95;4.15;;;;;;;;;;5790242;28;20053;-81
2023/12/16 06:00:14;;;;;;;7.40;5.53;;;;;;;;;;5790543;28;20051;-81
2023/12/16 06:03:04;;;;;;;15.95;12.35;;;;;;;;;;5790263;28;20058;-81
2023/12/16 06:05:55;;;;;;;13.60;7.38;;;;;;;;;;5775883;28;20144;-81
2023/12/16 06:08:46;;;;;;;23.38;7.30;;;;;;;;;;5775504;28;20090;-81
2023/12/16 06:11:37;;;;;;;8.13;5.32;;;;;;;;;;5790216;28;20417;-80
2023/12/16 06:14:27;;;;;;;8.52;5.72;;;;;;;;;;5774034;28;20043;-81
2023/12/16 06:17:18;;;;;;;11.18;4.72;;;;;;;;;;5789868;28;20066;-81
2023/12/16 06:20:10;;;;;;;11.07;7.05;;;;;;;;;;5789679;28;20091;-81
2023/12/16 06:23:01;;;;;;;14.13;4.35;;;;;;;;;;5789885;28;20484;-81
2023/12/16 06:25:51;;;;;;;7.50;5.47;;;;;;;;;;5790479;28;20419;-81
2023/12/16 06:28:42;;;;;;;10.93;6.40;;;;;;;;;;5789691;28;20497;-81
2023/12/16 06:31:33;;;;;;;16.85;6.07;;;;;;;;;;5773702;28;20090;-81
2023/12/16 06:34:24;;;;;;;10.32;6.07;;;;;;;;;;5789507;28;20051;-81
2023/12/16 06:37:14;;;;;;;11.05;6.85;;;;;;;;;;5789574;28;20074;-81
2023/12/16 06:40:07;;;;;;;6.00;4.93;;;;;;;;;;5789625;28;20055;-81
2023/12/16 06:42:58;;;;;;;10.43;6.97;;;;;;;;;;5773992;28;20153;-81
2023/12/16 06:45:49;;;;;;;7.47;3.78;;;;;;;;;;5774732;28;20130;-81
2023/12/16 06:48:39;;;;;;;10.35;3.88;;;;;;;;;;5774955;28;20039;-81
2023/12/16 06:51:30;;;;;;;7.38;4.68;;;;;;;;;;5789034;28;20058;-81
2023/12/16 06:54:21;;;;;;;5.95;4.70;;;;;;;;;;5774640;28;20051;-81
2023/12/16 06:57:12;;;;;;;11.05;5.78;;;;;;;;;;5789131;28;20531;-81
2023/12/16 07:00:05;;;;;;;7.32;4.45;;;;;;;;;;5788446;28;20062;-81
2023/12/16 07:02:56;;;;;;;7.97;5.53;;;;;;;;;;5789489;28;20059;-81
2023/12/16 07:05:46;;;;;;;6.40;4.97;;;;;;;;;;5788985;28;20441;-81
2023/12/16 07:08:37;;;;;;;6.85;4.90;;;;;;;;;;5788849;28;20126;-81
2023/12/16 07:11:28;;;;;;;10.13;4.75;;;;;;;;;;5788690;28;20059;-81
2023/12/16 07:14:19;;;;;;;8.25;3.72;;;;;;;;;;5788889;28;20051;-81
2023/12/16 07:17:10;;;;;;;6.05;4.28;;;;;;;;;;5772701;28;20433;-81
2023/12/16 07:20:00;;;;;;;7.40;4.40;;;;;;;;;;5788598;28;20058;-80
2023/12/16 07:22:51;;;;;;;14.93;6.32;;;;;;;;;;5789146;28;20043;-81
2023/12/16 07:25:42;;;;;;;12.43;6.05;;;;;;;;;;5788445;28;20053;-81
2023/12/16 07:28:33;;;;;;;6.05;4.97;;;;;;;;;;5788405;28;20051;-81
2023/12/16 07:31:24;;;;;;;5.28;4.68;;;;;;;;;;5773591;28;20050;-81
2023/12/16 07:34:15;;;;;;;9.95;5.53;;;;;;;;;;5788262;28;20051;-81
2023/12/16 07:37:06;;;;;;;6.15;3.17;;;;;;;;;;5788725;28;20514;-80
2023/12/16 07:39:57;;;;;;;4.57;4.10;;;;;;;;;;5772902;28;20098;-81
2023/12/16 07:42:48;;;;;;;5.07;4.55;;;;;;;;;;5788221;28;20145;-81
2023/12/16 07:45:39;;;;;;;9.70;5.32;;;;;;;;;;5788168;28;20504;-81
2023/12/16 07:48:29;;;;;;;7.75;5.00;;;;;;;;;;5773436;28;20101;-80
2023/12/16 07:51:24;;;;;;;5.15;4.63;;;;;;;;;;5773225;28;20058;-81
2023/12/16 07:54:15;;;;;;;6.18;3.90;;;;;;;;;;5787943;28;20047;-80
2023/12/16 07:57:06;;;;;;;5.88;5.32;;;;;;;;;;5771954;28;20051;-80
2023/12/16 07:59:57;;;;;;;9.23;4.93;;;;;;;;;;5788169;28;20422;-80
2023/12/16 08:02:47;;;;;;;3.40;3.10;;;;;;;;;;5787935;28;20066;-80
2023/12/16 08:05:41;;;;;;;8.57;4.38;;;;;;;;;;5771825;28;20413;-80
2023/12/16 08:08:32;;;;;;;10.73;5.78;;;;;;;;;;5772884;28;20058;-80
2023/12/16 08:11:22;;;;;;;7.20;4.18;;;;;;;;;;5786484;28;20047;-80
2023/12/16 08:14:13;;;;;;;6.25;4.18;;;;;;;;;;5787493;28;20055;-79
2023/12/16 08:17:04;;;;;;;8.80;4.90;;;;;;;;;;5771353;28;20054;-80
2023/12/16 08:19:55;;;;;;;8.35;4.70;;;;;;;;;;5787794;28;20058;-80
2023/12/16 08:22:45;;;;;;;7.53;4.95;;;;;;;;;;5787377;28;20074;-79
2023/12/16 08:25:36;;;;;;;5.18;4.35;;;;;;;;;;5787626;28;20046;-79
2023/12/16 08:28:27;;;;;;;6.00;5.15;;;;;;;;;;5787223;28;20075;-79
2023/12/16 08:31:18;;;;;;;25.00;6.03;;;;;;;;;;5787420;28;20051;-79
2023/12/16 08:34:09;;;;;;;6.88;4.53;;;;;;;;;;5787301;28;20051;-79
2023/12/16 08:37:00;;;;;;;5.05;4.60;;;;;;;;;;5787620;28;20051;-79
2023/12/16 08:39:51;;;;;;;9.45;6.80;;;;;;;;;;5786925;28;20117;-79
2023/12/16 08:42:43;;;;;;;5.03;4.40;;;;;;;;;;5786637;28;20065;-79
2023/12/16 08:45:34;;;;;;;9.40;5.80;;;;;;;;;;5786926;28;20188;-79
2023/12/16 08:48:26;;;;;;;8.60;5.07;;;;;;;;;;5786964;28;20055;-79
2023/12/16 08:51:23;;;;;;;7.07;5.50;;;;;;;;;;5786946;28;20421;-79
2023/12/16 08:54:13;;;;;;;8.93;5.68;;;;;;;;;;5771062;28;20066;-79
2023/12/16 08:57:04;;;;;;;13.15;7.85;;;;;;;;;;5786902;28;20278;-79
2023/12/16 08:59:55;;;;;;;12.00;6.40;;;;;;;;;;5772390;28;20481;-79
2023/12/16 09:02:46;;;;;;;7.50;6.70;;;;;;;;;;5786624;28;20039;-79
2023/12/16 09:05:37;;;;;;;15.43;6.35;;;;;;;;;;5786509;28;20421;-79
2023/12/16 09:08:28;;;;;;;9.63;5.95;;;;;;;;;;5786606;28;20053;-79
2023/12/16 09:11:18;;;;;;;10.55;4.85;;;;;;;;;;5770614;28;20051;-79
2023/12/16 09:14:10;;;;;;;10.43;4.88;;;;;;;;;;5786268;28;20055;-79
2023/12/16 09:17:00;;;;;;;5.68;5.18;;;;;;;;;;5786812;28;20051;-79
2023/12/16 09:19:51;;;;;;;8.02;5.70;;;;;;;;;;5786454;28;20047;-79
2023/12/16 09:22:42;;;;;;;9.10;6.70;;;;;;;;;;5786051;28;20678;-79
2023/12/16 09:25:33;;;;;;;7.93;7.07;;;;;;;;;;5786205;28;20178;-79
2023/12/16 09:28:24;;;;;;;8.45;5.40;;;;;;;;;;5786016;28;20043;-79
2023/12/16 09:31:16;;;;;;;7.28;6.22;;;;;;;;;;5786198;28;20074;-79
2023/12/16 09:34:07;;;;;;;6.25;4.97;;;;;;;;;;5786092;28;20091;-79
2023/12/16 09:36:58;;;;;;;7.35;6.30;;;;;;;;;;5786648;28;20134;-79
2023/12/16 09:39:48;;;;;;;7.07;6.32;;;;;;;;;;5785754;28;20043;-79
2023/12/16 09:42:44;;;;;;;8.00;5.45;;;;;;;;;;5785963;28;20090;-79
2023/12/16 09:45:35;;;;;;;10.40;6.63;;;;;;;;;;5770195;28;20050;-79
2023/12/16 09:48:26;;;;;;;10.32;6.45;;;;;;;;;;5785748;28;20082;-79
2023/12/16 09:51:17;;;;;;;7.53;5.50;;;;;;;;;;5785736;28;20055;-79
2023/12/16 09:54:08;;;;;;;12.20;8.48;;;;;;;;;;5771201;28;20054;-79
2023/12/16 09:57:00;;;;;;;11.30;7.43;;;;;;;;;;5786338;28;20409;-79
2023/12/16 09:59:52;;;;;;;14.52;5.57;;;;;;;;;;5786216;28;20486;-79
2023/12/16 10:02:47;;;;;;;14.85;7.28;;;;;;;;;;5785657;28;20422;-79
2023/12/16 10:05:38;;;;;;;11.75;5.93;;;;;;;;;;5785601;28;20449;-79
2023/12/16 10:08:29;;;;;;;11.80;7.35;;;;;;;;;;5771130;28;20529;-79
2023/12/16 10:11:20;;;;;;;17.35;7.53;;;;;;;;;;5785842;28;21570;-79
2023/12/16 10:14:11;;;;;;;26.05;9.25;;;;;;;;;;5785769;28;20390;-79
2023/12/16 10:17:04;;;;;;;16.77;9.00;;;;;;;;;;5785485;28;20057;-79
2023/12/16 10:19:55;;;;;;;16.30;10.63;;;;;;;;;;5786043;28;20051;-79
2023/12/16 10:22:46;;;;;;;16.40;10.15;;;;;;;;;;5785588;28;20043;-79
2023/12/16 10:25:37;;;;;;;16.05;9.15;;;;;;;;;;5770953;28;20584;-79
2023/12/16 10:28:27;;;;;;;22.38;18.25;;;;;;;;;;5785449;28;20518;-79
2023/12/16 10:31:19;;;;;;;31.40;17.05;;;;;;;;;;5785639;28;20171;-79
2023/12/16 10:34:11;;;;;;;37.63;22.90;;;;;;;;;;5773141;28;20186;-79
2023/12/16 10:37:06;;;;;;;26.70;15.40;;;;;;;;;;5789520;28;20047;-79
2023/12/16 10:39:58;;;;;;;35.47;17.15;;;;;;;;;;5789937;28;20058;-79
2023/12/16 10:42:49;;;;;;;30.58;15.02;;;;;;;;;;5774829;28;20129;-79
2023/12/16 10:45:40;;;;;;;27.85;19.83;;;;;;;;;;5789467;28;20047;-79
2023/12/16 10:48:36;;;;;;;25.48;14.80;;;;;;;;;;5774709;28;20054;-79
2023/12/16 10:51:29;;;;;;;26.00;14.93;;;;;;;;;;5789151;28;20054;-79
2023/12/16 10:54:41;;;;;;;13.45;11.48;;;;;;;;;;5773515;28;20051;-79
2023/12/16 10:57:49;;;;;;;17.00;9.25;;;;;;;;;;5789361;28;20051;-79
2023/12/16 11:00:41;;;;;;;15.25;11.90;;;;;;;;;;5788995;28;20039;-79
2023/12/16 11:04:01;;;;;;;19.02;10.65;;;;;;;;;;5788986;28;20416;-79
2023/12/16 11:07:05;;;;;;;15.18;7.90;;;;;;;;;;5774580;28;20122;-79
2023/12/16 11:09:56;;;;;;;14.75;9.88;;;;;;;;;;5788780;28;20094;-79
2023/12/16 11:12:48;;;;;;;12.25;10.20;;;;;;;;;;5772828;28;20417;-79
2023/12/16 11:15:39;;;;;;;16.02;9.68;;;;;;;;;;5788785;28;20043;-79
2023/12/16 11:18:32;;;;;;;10.73;8.38;;;;;;;;;;5788609;28;20126;-79
2023/12/16 11:21:25;;;;;;;11.07;6.80;;;;;;;;;;5788544;28;20134;-79
2023/12/16 11:24:16;;;;;;;11.15;7.30;;;;;;;;;;5772504;28;20134;-79
2023/12/16 11:27:07;;;;;;;12.40;8.38;;;;;;;;;;5774084;28;20055;-79
2023/12/16 11:29:58;;;;;;;13.55;7.38;;;;;;;;;;5789087;28;20503;-79
2023/12/16 11:32:57;;;;;;;13.27;9.25;;;;;;;;;;5788394;28;20413;-79
2023/12/16 11:35:53;;;;;;;11.05;8.90;;;;;;;;;;5772428;28;20058;-79
2023/12/16 11:38:46;;;;;;;13.38;8.23;;;;;;;;;;5788006;28;20182;-79
2023/12/16 11:41:43;;;;;;;18.33;10.65;;;;;;;;;;5787716;28;20118;-79
2023/12/16 11:44:51;;;;;;;20.70;11.18;;;;;;;;;;5773629;28;20449;-78
2023/12/16 11:47:47;;;;;;;13.45;9.35;;;;;;;;;;5788193;28;20043;-79
2023/12/16 11:50:41;;;;;;;18.55;10.35;;;;;;;;;;5787386;28;20067;-79
2023/12/16 11:53:31;;;;;;;23.70;11.85;;;;;;;;;;5772725;28;20069;-79
2023/12/16 11:56:22;;;;;;;8.82;6.63;;;;;;;;;;5772116;28;20047;-79
2023/12/16 11:59:13;;;;;;;13.93;7.95;;;;;;;;;;5773450;28;20063;-79
2023/12/16 12:02:05;;;;;;;17.52;8.95;;;;;;;;;;5787856;28;20063;-79
2023/12/16 12:04:59;;;;;;;10.63;9.02;;;;;;;;;;5788466;28;20051;-79
2023/12/16 12:07:51;;;;;;;9.32;7.65;;;;;;;;;;5788274;28;20058;-79
2023/12/16 12:10:42;;;;;;;20.23;11.57;;;;;;;;;;5788072;28;20050;-79
2023/12/16 12:13:34;;;;;;;14.15;10.35;;;;;;;;;;5787807;28;20621;-79
2023/12/16 12:16:29;;;;;;;22.40;9.07;;;;;;;;;;5787601;28;20043;-79
2023/12/16 12:19:20;;;;;;;19.58;9.85;;;;;;;;;;5787691;28;20498;-79
2023/12/16 12:22:11;;;;;;;15.02;8.98;;;;;;;;;;5772885;28;20520;-79
2023/12/16 12:25:02;;;;;;;9.10;8.23;;;;;;;;;;5772736;28;20057;-79
2023/12/16 12:27:53;;;;;;;11.77;9.57;;;;;;;;;;5771802;28;20066;-79
2023/12/16 12:30:44;;;;;;;17.73;11.45;;;;;;;;;;5787258;28;20051;-79
2023/12/16 12:33:36;;;;;;;11.52;9.00;;;;;;;;;;5772642;28;20047;-79
2023/12/16 12:36:28;;;;;;;14.90;6.10;;;;;;;;;;5787063;28;20051;-79
2023/12/16 12:39:19;;;;;;;6.90;5.15;;;;;;;;;;5787607;28;20453;-79
2023/12/16 12:42:09;;;;;;;13.65;6.13;;;;;;;;;;5772226;28;20074;-79
2023/12/16 12:45:02;;;;;;;8.20;5.60;;;;;;;;;;5771372;28;20402;-79
2023/12/16 12:47:55;;;;;;;8.63;5.57;;;;;;;;;;5771126;28;20043;-79
2023/12/16 12:51:00;;;;;;;11.15;7.07;;;;;;;;;;5786655;28;20465;-79
2023/12/16 12:53:58;;;;;;;6.22;5.53;;;;;;;;;;5786935;28;20050;-78
2023/12/16 12:56:52;;;;;;;7.55;5.63;;;;;;;;;;5770492;28;20054;-79
2023/12/16 12:59:43;;;;;;;8.05;5.45;;;;;;;;;;5772182;28;20174;-79
2023/12/16 13:02:52;;;;;;;16.13;7.57;;;;;;;;;;5784586;28;20035;-79
2023/12/16 13:05:44;;;;;;;11.35;10.20;;;;;;;;;;5786502;28;20047;-79
2023/12/16 13:08:36;;;;;;;15.00;10.45;;;;;;;;;;5786330;28;20047;-79
2023/12/16 13:11:31;;;;;;;17.92;10.18;;;;;;;;;;5774468;28;20043;-78
2023/12/16 13:14:22;;;;;;;15.68;11.93;;;;;;;;;;5795457;28;20042;-79
2023/12/16 13:17:19;;;;;;;11.60;9.57;;;;;;;;;;5785864;28;20446;-79
2023/12/16 13:20:10;;;;;;;17.73;13.27;;;;;;;;;;5786229;28;20047;-78
2023/12/16 13:23:02;;;;;;;18.65;10.52;;;;;;;;;;5786393;28;20050;-79
2023/12/16 13:25:53;;;;;;;10.57;8.65;;;;;;;;;;5786671;28;20363;-79
2023/12/16 13:28:45;;;;;;;14.45;9.63;;;;;;;;;;5790612;28;20043;-79
2023/12/16 13:31:36;;;;;;;13.23;7.90;;;;;;;;;;5793916;28;20048;-79
2023/12/16 13:34:26;;;;;;;12.32;7.38;;;;;;;;;;5771593;28;20051;-79
2023/12/16 13:37:17;;;;;;;9.23;7.63;;;;;;;;;;5786005;28;20059;-79
2023/12/16 13:40:10;;;;;;;17.42;10.40;;;;;;;;;;5786111;28;20051;-79
2023/12/16 13:43:01;;;;;;;9.70;4.72;;;;;;;;;;5786125;28;20058;-79
2023/12/16 13:45:54;;;;;;;9.05;6.60;;;;;;;;;;5786341;28;20059;-79
2023/12/16 13:48:45;;;;;;;9.32;5.78;;;;;;;;;;5786061;28;20047;-78
2023/12/16 13:51:36;;;;;;;14.73;11.77;;;;;;;;;;5786029;28;20610;-79
2023/12/16 13:54:27;;;;;;;13.98;9.05;;;;;;;;;;5771515;28;20335;-79
2023/12/16 13:57:17;;;;;;;16.98;11.38;;;;;;;;;;5786059;28;20275;-79
2023/12/16 14:00:09;;;;;;;18.23;12.80;;;;;;;;;;5769838;28;20055;-79
2023/12/16 14:03:00;;;;;;;20.67;16.02;;;;;;;;;;5786563;28;20058;-79
2023/12/16 14:05:51;;;;;;;14.55;10.38;;;;;;;;;;5771579;28;20039;-79
2023/12/16 14:08:42;;;;;;;15.25;11.25;;;;;;;;;;5787433;28;20134;-79
2023/12/16 14:11:33;;;;;;;18.10;12.98;;;;;;;;;;5790415;28;20054;-79
2023/12/16 14:14:24;;;;;;;30.38;20.20;;;;;;;;;;5775492;28;20481;-79
2023/12/16 14:17:15;;;;;;;34.92;22.42;;;;;;;;;;5790076;28;20058;-79
2023/12/16 14:20:07;;;;;;;35.47;22.13;;;;;;;;;;5790140;28;20397;-79
2023/12/16 14:22:57;;;;;;;20.40;12.45;;;;;;;;;;5790527;28;20058;-79
2023/12/16 14:25:48;;;;;;;19.35;12.93;;;;;;;;;;5789974;28;20043;-79
2023/12/16 14:28:39;;;;;;;32.67;17.35;;;;;;;;;;5775356;28;20047;-79
2023/12/16 14:31:30;;;;;;;32.22;19.73;;;;;;;;;;5773777;28;20057;-79
2023/12/16 14:34:23;;;;;;;25.55;20.45;;;;;;;;;;5775157;28;20055;-79
2023/12/16 14:37:15;;;;;;;16.90;14.10;;;;;;;;;;5775115;28;20051;-79
2023/12/16 14:40:06;;;;;;;20.90;14.80;;;;;;;;;;5773651;28;20055;-79
2023/12/16 14:42:57;;;;;;;20.60;16.63;;;;;;;;;;5775322;28;20062;-79
2023/12/16 14:45:48;;;;;;;21.58;12.98;;;;;;;;;;5774873;28;20050;-79
2023/12/16 14:48:39;;;;;;;21.52;16.83;;;;;;;;;;5789384;28;20047;-79
2023/12/16 14:51:37;;;;;;;20.77;16.52;;;;;;;;;;5774570;28;20126;-79
2023/12/16 14:54:28;;;;;;;22.70;18.25;;;;;;;;;;5774788;28;20629;-79
2023/12/16 14:57:18;;;;;;;36.17;24.83;;;;;;;;;;5774557;28;20062;-79
2023/12/16 15:00:10;;;;;;;26.77;15.68;;;;;;;;;;5789142;28;20055;-79
2023/12/16 15:03:01;;;;;;;27.10;19.67;;;;;;;;;;5774482;28;20054;-79
2023/12/16 15:05:52;;;;;;;30.00;14.45;;;;;;;;;;5789753;28;20406;-79
2023/12/16 15:08:43;;;;;;;28.77;19.20;;;;;;;;;;5773130;28;20047;-79
2023/12/16 15:11:35;;;;;;;36.53;21.20;;;;;;;;;;5774245;28;20054;-79
2023/12/16 15:14:27;;;;;;;44.20;26.98;;;;;;;;;;5789117;28;20414;-79
2023/12/16 15:17:18;;;;;;;23.35;17.27;;;;;;;;;;5788718;28;20047;-79
2023/12/16 15:20:09;;;;;;;20.08;14.65;;;;;;;;;;5788407;28;20421;-79
2023/12/16 15:23:00;;;;;;;27.10;15.68;;;;;;;;;;5773265;28;20079;-79
2023/12/16 15:25:52;;;;;;;21.63;18.98;;;;;;;;;;5774135;28;20122;-79
2023/12/16 15:28:43;;;;;;;30.83;19.40;;;;;;;;;;5788733;28;20425;-79
2023/12/16 15:31:40;;;;;;;31.42;20.05;;;;;;;;;;5773998;28;20493;-79
2023/12/16 15:34:30;;;;;;;17.70;12.35;;;;;;;;;;5772496;28;20126;-79
2023/12/16 15:37:21;;;;;;;17.55;12.05;;;;;;;;;;5788406;28;20074;-79
2023/12/16 15:40:12;;;;;;;16.90;13.63;;;;;;;;;;5773834;28;20058;-79
2023/12/16 15:43:03;;;;;;;18.45;13.70;;;;;;;;;;5788141;28;20046;-79
2023/12/16 15:45:53;;;;;;;20.33;13.40;;;;;;;;;;5788851;28;20047;-79
2023/12/16 15:48:44;;;;;;;26.38;13.73;;;;;;;;;;5773540;28;20043;-79
2023/12/16 15:51:37;;;;;;;38.17;17.30;;;;;;;;;;5773496;28;20590;-79
2023/12/16 15:54:28;;;;;;;20.45;16.60;;;;;;;;;;5788219;28;20043;-79
2023/12/16 15:57:19;;;;;;;23.38;13.63;;;;;;;;;;5787856;28;20059;-79
2023/12/16 16:00:11;;;;;;;20.67;11.32;;;;;;;;;;5788037;28;20061;-79
2023/12/16 16:03:03;;;;;;;18.85;11.50;;;;;;;;;;5773235;28;20055;-79
2023/12/16 16:05:54;;;;;;;12.13;10.25;;;;;;;;;;5773614;28;20069;-79
2023/12/16 16:08:45;;;;;;;12.43;8.60;;;;;;;;;;5787657;28;20106;-79
2023/12/16 16:11:37;;;;;;;11.73;7.93;;;;;;;;;;5787637;28;20047;-79
2023/12/16 16:14:28;;;;;;;11.23;9.10;;;;;;;;;;5772986;28;20047;-79
2023/12/16 16:17:19;;;;;;;11.10;8.93;;;;;;;;;;5772984;28;20055;-79
2023/12/16 16:20:10;;;;;;;15.88;10.38;;;;;;;;;;5773075;28;20047;-79
2023/12/16 16:23:01;;;;;;;14.48;11.35;;;;;;;;;;5787080;28;20142;-79
2023/12/16 16:25:51;;;;;;;8.50;7.05;;;;;;;;;;5773128;28;20043;-79
2023/12/16 16:28:43;;;;;;;17.02;10.25;;;;;;;;;;5772803;28;20047;-79
2023/12/16 16:31:37;;;;;;;18.60;9.48;;;;;;;;;;5770661;28;20054;-79
2023/12/16 16:34:28;;;;;;;19.02;10.85;;;;;;;;;;5786651;28;20055;-79
2023/12/16 16:37:19;;;;;;;12.70;8.43;;;;;;;;;;5772403;28;20086;-79
2023/12/16 16:40:10;;;;;;;10.90;8.88;;;;;;;;;;5772367;28;20051;-79
2023/12/16 16:43:01;;;;;;;11.77;8.18;;;;;;;;;;5786890;28;20092;-79
2023/12/16 16:45:52;;;;;;;14.90;7.50;;;;;;;;;;5787393;28;20058;-78
2023/12/16 16:48:43;;;;;;;12.35;8.93;;;;;;;;;;5786925;28;20498;-79
2023/12/16 16:51:34;;;;;;;18.92;11.90;;;;;;;;;;5786852;28;20049;-79
2023/12/16 16:54:25;;;;;;;17.88;11.13;;;;;;;;;;5786984;28;20047;-79